createdAt,value
2018-09-05T00:00:07.387Z,28.90
2018-09-05T00:02:35.941Z,29.30
2018-09-05T00:05:04.779Z,29.53
2018-09-05T00:07:33.988Z,27.10
2018-09-05T00:10:02.696Z,28.53
2018-09-05T00:12:31.441Z,29.97
2018-09-05T00:15:00.167Z,29.57
2018-09-05T00:17:28.653Z,28.13
2018-09-05T00:19:57.201Z,29.27
2018-09-05T00:22:25.795Z,30.90
2018-09-05T00:24:54.290Z,28.43
2018-09-05T00:27:22.820Z,29.30
2018-09-05T00:29:51.358Z,28.30
2018-09-05T00:32:19.947Z,29.07
2018-09-05T00:34:48.479Z,31.30
2018-09-05T00:37:17.033Z,31.30
2018-09-05T00:39:45.647Z,28.83
2018-09-05T00:42:14.126Z,29.10
2018-09-05T00:44:42.711Z,29.50
2018-09-05T00:47:11.215Z,31.53
2018-09-05T00:49:39.678Z,33.27
2018-09-05T00:52:08.146Z,32.53
2018-09-05T00:54:36.639Z,33.60
2018-09-05T00:57:05.140Z,34.17
2018-09-05T00:59:33.632Z,32.90
2018-09-05T01:02:02.400Z,32.90
2018-09-05T01:04:30.935Z,33.40
2018-09-05T01:06:59.804Z,32.97
2018-09-05T01:09:28.283Z,33.67
2018-09-05T01:11:56.775Z,33.47
2018-09-05T01:14:25.296Z,32.83
2018-09-05T01:16:53.838Z,33.23
2018-09-05T01:19:22.346Z,32.80
2018-09-05T01:21:51.670Z,31.97
2018-09-05T01:24:20.188Z,34.03
2018-09-05T01:26:49.750Z,33.47
2018-09-05T01:29:18.295Z,35.33
2018-09-05T01:31:46.810Z,36.20
2018-09-05T01:34:15.306Z,35.03
2018-09-05T01:36:43.791Z,33.47
2018-09-05T01:39:12.327Z,34.70
2018-09-05T01:41:40.853Z,33.47
2018-09-05T01:44:09.647Z,35.43
2018-09-05T01:46:38.497Z,35.77
2018-09-05T01:49:07.010Z,35.70
2018-09-05T01:51:35.527Z,35.70
2018-09-05T01:54:04.075Z,36.30
2018-09-05T01:56:33.214Z,35.77
2018-09-05T01:59:01.775Z,36.73
2018-09-05T02:01:30.279Z,34.47
2018-09-05T02:03:59.139Z,34.30
2018-09-05T02:06:27.714Z,35.50
2018-09-05T02:08:56.208Z,35.03
2018-09-05T02:11:24.687Z,35.43
2018-09-05T02:13:54.030Z,36.83
2018-09-05T02:16:22.587Z,36.13
2018-09-05T02:18:51.639Z,35.80
2018-09-05T02:21:20.170Z,37.33
2018-09-05T02:23:48.779Z,36.83
2018-09-05T02:26:17.282Z,35.53
2018-09-05T02:28:45.786Z,33.77
2018-09-05T02:31:14.334Z,37.30
2018-09-05T02:33:42.892Z,36.53
2018-09-05T02:36:11.422Z,38.30
2018-09-05T02:38:39.988Z,37.57
2018-09-05T02:41:09.288Z,36.47
2018-09-05T02:43:43.415Z,38.13
2018-09-05T02:46:11.978Z,38.17
2018-09-05T02:48:40.629Z,36.53
2018-09-05T02:51:09.185Z,36.90
2018-09-05T02:53:38.021Z,38.87
2018-09-05T02:56:06.530Z,39.70
2018-09-05T02:58:35.553Z,38.13
2018-09-05T03:01:04.104Z,38.13
2018-09-05T03:03:32.925Z,36.40
2018-09-05T03:06:01.427Z,37.77
2018-09-05T03:08:29.998Z,39.60
2018-09-05T03:10:58.546Z,37.77
2018-09-05T03:13:27.157Z,38.37
2018-09-05T03:15:55.786Z,36.73
2018-09-05T03:18:24.402Z,39.33
2018-09-05T03:20:52.915Z,38.03
2018-09-05T03:23:21.579Z,34.97
2018-09-05T03:25:50.031Z,35.97
2018-09-05T03:28:18.870Z,38.07
2018-09-05T03:30:47.355Z,36.73
2018-09-05T03:33:15.864Z,36.90
2018-09-05T03:35:44.574Z,37.03
2018-09-05T03:38:13.034Z,37.37
2018-09-05T03:40:41.565Z,36.53
2018-09-05T03:43:10.466Z,36.30
2018-09-05T03:45:39.113Z,36.10
2018-09-05T03:48:07.699Z,35.80
2018-09-05T03:50:36.194Z,36.17
2018-09-05T03:53:04.770Z,37.07
2018-09-05T03:55:33.379Z,36.73
2018-09-05T03:58:02.813Z,36.27
2018-09-05T04:00:32.750Z,35.97
2018-09-05T04:03:02.152Z,38.03
2018-09-05T04:05:30.802Z,38.23
2018-09-05T04:07:59.660Z,36.30
2018-09-05T04:10:28.212Z,38.10
2018-09-05T04:12:56.698Z,36.70
2018-09-05T04:15:25.273Z,35.57
2018-09-05T04:17:53.792Z,36.03
2018-09-05T04:20:22.315Z,36.90
2018-09-05T04:22:51.543Z,38.17
2018-09-05T04:25:20.027Z,36.73
2018-09-05T04:27:48.599Z,35.43
2018-09-05T04:30:17.433Z,36.57
2018-09-05T04:32:45.932Z,36.93
2018-09-05T04:35:14.461Z,37.27
2018-09-05T04:37:42.976Z,37.63
2018-09-05T04:40:11.486Z,37.23
2018-09-05T04:42:39.997Z,37.40
2018-09-05T04:45:08.537Z,36.43
2018-09-05T04:47:37.303Z,35.13
2018-09-05T04:50:06.313Z,36.10
2018-09-05T04:52:34.810Z,36.27
2018-09-05T04:55:03.377Z,35.90
2018-09-05T04:57:31.835Z,35.87
2018-09-05T05:00:00.360Z,36.23
2018-09-05T05:02:28.846Z,35.90
2018-09-05T05:04:57.551Z,38.73
2018-09-05T05:07:26.033Z,36.20
2018-09-05T05:09:54.539Z,35.80
2018-09-05T05:12:23.394Z,37.13
2018-09-05T05:14:52.320Z,34.27
2018-09-05T05:17:20.864Z,35.87
2018-09-05T05:19:49.385Z,34.17
2018-09-05T05:22:17.862Z,37.53
2018-09-05T05:24:46.272Z,35.37
2018-09-05T05:27:15.326Z,36.63
2018-09-05T05:29:43.844Z,36.77
2018-09-05T05:32:12.281Z,40.00
2018-09-05T05:34:40.812Z,39.20
2018-09-05T05:37:09.669Z,39.17
2018-09-05T05:39:38.167Z,41.83
2018-09-05T05:42:06.751Z,39.13
2018-09-05T05:44:35.728Z,41.80
2018-09-05T05:47:04.425Z,39.27
2018-09-05T05:49:33.017Z,40.20
2018-09-05T05:52:01.490Z,38.83
2018-09-05T05:54:30.043Z,38.70
2018-09-05T05:56:58.499Z,37.80
2018-09-05T05:59:27.043Z,39.53
2018-09-05T06:01:55.660Z,37.43
2018-09-05T06:04:24.141Z,34.70
2018-09-05T06:06:53.395Z,37.90
2018-09-05T06:09:21.978Z,36.10
2018-09-05T06:11:50.531Z,37.07
2018-09-05T06:14:19.076Z,35.93
2018-09-05T06:16:47.605Z,35.13
2018-09-05T06:19:16.104Z,37.63
2018-09-05T06:21:44.621Z,39.63
2018-09-05T06:24:13.894Z,37.93
2018-09-05T06:26:42.460Z,37.97
2018-09-05T06:29:11.431Z,38.50
2018-09-05T06:31:39.919Z,37.63
2018-09-05T06:34:08.398Z,39.90
2018-09-05T06:36:36.928Z,39.50
2018-09-05T06:39:08.995Z,40.27
2018-09-05T06:41:37.936Z,41.73
2018-09-05T06:44:06.618Z,38.60
2018-09-05T06:46:35.169Z,39.70
2018-09-05T06:49:03.763Z,40.33
2018-09-05T06:51:32.364Z,38.87
2018-09-05T06:54:00.862Z,39.70
2018-09-05T06:56:29.308Z,38.47
2018-09-05T06:58:57.814Z,37.57
2018-09-05T07:01:26.428Z,38.33
2018-09-05T07:03:54.988Z,40.20
2018-09-05T07:06:23.519Z,38.47
2018-09-05T07:08:52.110Z,36.30
2018-09-05T07:11:20.649Z,36.50
2018-09-05T07:13:49.258Z,36.43
2018-09-05T07:16:18.583Z,37.07
2018-09-05T07:18:47.096Z,37.63
2018-09-05T07:21:15.773Z,37.27
2018-09-05T07:23:44.244Z,40.33
2018-09-05T07:26:12.766Z,36.63
2018-09-05T07:28:41.243Z,40.73
2018-09-05T07:31:09.835Z,38.17
2018-09-05T07:33:39.105Z,39.07
2018-09-05T07:36:07.663Z,37.73
2018-09-05T07:38:36.996Z,41.37
2018-09-05T07:41:05.807Z,35.73
2018-09-05T07:43:34.461Z,38.33
2018-09-05T07:46:02.908Z,37.50
2018-09-05T07:48:31.560Z,34.93
2018-09-05T07:51:00.228Z,37.10
2018-09-05T07:53:28.739Z,35.10
2018-09-05T07:55:57.241Z,33.50
2018-09-05T07:58:25.849Z,36.20
2018-09-05T08:03:52.868Z,34.80
2018-09-05T08:06:22.836Z,32.97
2018-09-05T08:08:52.011Z,31.70
2018-09-05T08:11:22.477Z,32.87
2018-09-05T08:13:52.472Z,32.73
2018-09-05T08:16:22.105Z,29.87
2018-09-05T08:18:51.537Z,31.97
2018-09-05T08:21:20.941Z,29.23
2018-09-05T08:23:50.668Z,29.30
2018-09-05T08:26:20.691Z,27.63
2018-09-05T08:28:51.661Z,28.43
2018-09-05T08:31:20.658Z,26.67
2018-09-05T08:33:50.344Z,24.97
2018-09-05T08:36:19.895Z,25.10
2018-09-05T08:38:48.833Z,24.33
2018-09-05T08:41:20.779Z,22.90
2018-09-05T08:43:50.078Z,22.40
2018-09-05T08:46:19.541Z,22.60
2018-09-05T08:48:49.255Z,24.10
2018-09-05T08:51:20.161Z,22.57
2018-09-05T08:53:50.682Z,23.50
2018-09-05T08:56:21.808Z,23.47
2018-09-05T08:58:52.103Z,23.37
2018-09-05T09:01:21.676Z,22.70
2018-09-05T09:03:52.045Z,23.83
2018-09-05T09:06:21.744Z,22.80
2018-09-05T09:08:50.769Z,22.63
2018-09-05T09:11:20.232Z,23.30
2018-09-05T09:13:49.504Z,21.37
2018-09-05T09:16:18.845Z,21.53
2018-09-05T09:18:49.147Z,21.77
2018-09-05T09:21:20.132Z,20.50
2018-09-05T09:23:50.291Z,22.03
2018-09-05T09:26:20.065Z,19.20
2018-09-05T09:28:49.496Z,19.67
2018-09-05T09:31:19.792Z,19.07
2018-09-05T09:33:49.241Z,18.87
2018-09-05T09:36:19.845Z,17.27
2018-09-05T09:38:49.334Z,17.80
2018-09-05T09:41:20.618Z,17.00
2018-09-05T09:45:02.760Z,24.73
2018-09-05T09:47:32.199Z,19.70
2018-09-05T09:50:02.215Z,19.70
2018-09-05T09:52:31.231Z,19.30
2018-09-05T09:55:00.455Z,18.87
2018-09-05T09:57:29.459Z,19.80
2018-09-05T09:59:58.550Z,17.67
2018-09-05T10:02:32.697Z,19.33
2018-09-05T10:05:08.361Z,19.37
2018-09-05T10:07:43.874Z,16.90
2018-09-05T10:10:18.696Z,18.63
2018-09-05T10:12:52.090Z,17.17
2018-09-05T10:15:26.821Z,16.40
2018-09-05T10:18:00.974Z,17.37
2018-09-05T10:20:30.287Z,17.37
2018-09-05T10:22:59.344Z,15.50
2018-09-05T10:25:28.450Z,17.87
2018-09-05T10:27:57.662Z,16.80
2018-09-05T10:30:27.076Z,17.37
2018-09-05T10:32:56.487Z,16.80
2018-09-05T10:35:28.044Z,19.50
2018-09-05T10:37:57.559Z,16.47
2018-09-05T10:40:28.161Z,16.50
2018-09-05T10:42:57.416Z,18.70
2018-09-05T10:45:26.623Z,15.43
2018-09-05T10:47:56.876Z,18.30
2018-09-05T10:50:26.424Z,23.03
2018-09-05T10:52:55.673Z,18.03
2018-09-05T10:55:24.864Z,15.60
2018-09-05T10:57:55.018Z,15.63
2018-09-05T11:00:24.286Z,15.87
2018-09-05T11:02:55.314Z,13.97
2018-09-05T11:05:24.912Z,14.90
2018-09-05T11:07:54.075Z,13.77
2018-09-05T11:10:24.005Z,14.10
2018-09-05T11:12:59.747Z,13.27
2018-09-05T11:15:28.907Z,14.07
2018-09-05T11:17:59.557Z,13.57
2018-09-05T11:20:28.735Z,14.60
2018-09-05T11:22:57.876Z,13.00
2018-09-05T11:25:27.154Z,13.40
2018-09-05T11:27:57.302Z,13.83
2018-09-05T11:30:26.616Z,14.03
2018-09-05T11:32:55.834Z,12.63
2018-09-05T11:35:25.064Z,13.77
2018-09-05T11:37:55.349Z,11.60
2018-09-05T11:40:25.490Z,16.67
2018-09-05T11:42:57.128Z,13.47
2018-09-05T11:45:28.530Z,12.20
2018-09-05T11:47:57.760Z,12.80
2018-09-05T11:50:27.034Z,13.93
2018-09-05T11:52:56.668Z,13.57
2018-09-05T11:55:27.185Z,12.80
2018-09-05T11:57:58.231Z,13.70
2018-09-05T12:00:27.264Z,16.67
2018-09-05T12:02:56.570Z,12.23
2018-09-05T12:05:26.344Z,12.00
2018-09-05T12:07:55.482Z,12.30
2018-09-05T12:10:24.480Z,12.73
2018-09-05T12:12:55.585Z,27.73
2018-09-05T12:15:25.148Z,12.57
2018-09-05T12:17:54.137Z,16.87
2018-09-05T12:20:23.416Z,12.57
2018-09-05T12:22:52.739Z,12.60
2018-09-05T12:25:21.841Z,16.53
2018-09-05T12:27:55.743Z,12.60
2018-09-05T12:30:27.182Z,13.17
2018-09-05T12:32:59.726Z,12.90
2018-09-05T12:35:30.879Z,12.50
2018-09-05T12:38:08.686Z,12.67
2018-09-05T12:40:39.791Z,12.80
2018-09-05T12:43:12.537Z,13.13
2018-09-05T12:45:42.657Z,12.37
2018-09-05T12:48:13.696Z,12.50
2018-09-05T12:50:45.031Z,14.70
2018-09-05T12:53:13.897Z,12.20
2018-09-05T12:55:43.176Z,12.80
2018-09-05T12:58:13.274Z,12.93
2018-09-05T13:00:48.838Z,11.97
2018-09-05T13:03:18.504Z,11.10
2018-09-05T13:05:47.896Z,11.53
2018-09-05T13:08:16.769Z,11.40
2018-09-05T13:10:45.989Z,13.07
2018-09-05T13:13:16.056Z,11.77
2018-09-05T13:15:45.477Z,13.90
2018-09-05T13:18:14.417Z,11.83
2018-09-05T13:20:44.384Z,11.70
2018-09-05T13:23:14.084Z,12.60
2018-09-05T13:25:43.121Z,12.30
2018-09-05T13:28:11.912Z,12.00
2018-09-05T13:30:40.518Z,12.87
2018-09-05T13:33:10.462Z,14.50
2018-09-05T13:35:39.320Z,11.83
2018-09-05T13:38:08.275Z,11.87
2018-09-05T13:40:37.132Z,13.63
2018-09-05T13:43:05.728Z,11.53
2018-09-05T13:45:34.532Z,11.63
2018-09-05T13:48:03.641Z,11.93
2018-09-05T13:50:32.577Z,12.27
2018-09-05T13:53:01.231Z,12.10
2018-09-05T13:55:29.861Z,12.60
2018-09-05T13:57:58.644Z,14.03
2018-09-05T14:00:27.403Z,13.03
2018-09-05T14:02:56.152Z,14.47
2018-09-05T14:05:24.885Z,12.57
2018-09-05T14:07:53.474Z,12.97
2018-09-05T14:10:22.106Z,13.57
2018-09-05T14:12:51.134Z,13.03
2018-09-05T14:15:19.879Z,13.30
2018-09-05T14:17:48.651Z,12.40
2018-09-05T14:20:17.284Z,12.20
2018-09-05T14:22:45.917Z,13.20
2018-09-05T14:25:14.471Z,11.83
2018-09-05T14:27:43.046Z,11.83
2018-09-05T14:30:11.612Z,11.70
2018-09-05T14:32:40.219Z,12.17
2018-09-05T14:35:08.861Z,12.33
2018-09-05T14:37:37.569Z,12.73
2018-09-05T14:40:06.234Z,12.17
2018-09-05T14:42:34.960Z,11.30
2018-09-05T14:45:03.785Z,10.97
2018-09-05T14:47:32.432Z,12.03
2018-09-05T14:50:00.942Z,15.10
2018-09-05T14:52:29.546Z,13.33
2018-09-05T14:54:58.193Z,13.30
2018-09-05T14:57:26.779Z,12.23
2018-09-05T14:59:55.427Z,12.30
2018-09-05T15:02:23.999Z,11.63
2018-09-05T15:04:52.642Z,11.50
2018-09-05T15:07:21.597Z,11.60
2018-09-05T15:09:50.212Z,10.87
2018-09-05T15:12:19.331Z,12.10
2018-09-05T15:14:48.006Z,12.13
2018-09-05T15:17:16.668Z,12.53
2018-09-05T15:19:45.393Z,15.63
2018-09-05T15:22:14.695Z,12.37
2018-09-05T15:24:43.769Z,12.57
2018-09-05T15:27:15.306Z,12.70
2018-09-05T15:29:45.054Z,12.40
2018-09-05T15:32:20.691Z,13.13
2018-09-05T15:34:52.838Z,19.93
2018-09-05T15:37:22.007Z,12.43
2018-09-05T15:39:50.648Z,11.77
2018-09-05T15:42:19.171Z,12.10
2018-09-05T15:44:47.809Z,11.33
2018-09-05T15:47:17.460Z,13.90
2018-09-05T15:49:46.281Z,10.93
2018-09-05T15:52:15.222Z,11.40
2018-09-05T15:54:44.374Z,11.07
2018-09-05T15:57:13.279Z,11.03
2018-09-05T16:02:25.826Z,11.93
2018-09-05T16:04:54.531Z,11.47
2018-09-05T16:07:23.217Z,11.57
2018-09-05T16:09:51.800Z,11.13
2018-09-05T16:12:20.555Z,14.37
2018-09-05T16:14:49.143Z,14.23
2018-09-05T16:17:17.763Z,13.33
2018-09-05T16:19:46.441Z,13.47
2018-09-05T16:22:15.186Z,14.97
2018-09-05T16:24:43.765Z,13.57
2018-09-05T16:27:12.296Z,13.27
2018-09-05T16:29:40.866Z,17.37
2018-09-05T16:32:09.360Z,14.70
2018-09-05T16:34:38.019Z,13.67
2018-09-05T16:37:06.581Z,13.90
2018-09-05T16:39:35.108Z,14.30
2018-09-05T16:42:03.613Z,14.20
2018-09-05T16:44:32.161Z,14.13
2018-09-05T16:47:00.756Z,13.33
2018-09-05T16:49:29.315Z,13.80
2018-09-05T16:51:57.833Z,14.87
2018-09-05T16:54:30.680Z,19.00
2018-09-05T16:56:59.407Z,17.50
2018-09-05T16:59:27.880Z,13.83
2018-09-05T17:01:57.319Z,14.70
2018-09-05T17:04:26.051Z,13.83
2018-09-05T17:06:54.540Z,12.83
2018-09-05T17:09:23.179Z,13.27
2018-09-05T17:11:51.695Z,14.87
2018-09-05T17:14:20.261Z,11.57
2018-09-05T17:16:48.799Z,11.47
2018-09-05T17:19:17.341Z,10.80
2018-09-05T17:21:45.863Z,11.20
2018-09-05T17:24:15.288Z,11.67
2018-09-05T17:26:43.803Z,15.23
2018-09-05T17:29:13.034Z,14.00
2018-09-05T17:31:41.687Z,15.63
2018-09-05T17:34:11.140Z,16.53
2018-09-05T17:36:39.892Z,15.20
2018-09-05T17:39:10.553Z,15.43
2018-09-05T17:41:40.862Z,14.23
2018-09-05T17:44:10.965Z,14.53
2018-09-05T17:46:40.835Z,14.47
2018-09-05T17:49:13.843Z,13.73
2018-09-05T17:51:42.851Z,11.90
2018-09-05T17:54:11.350Z,12.23
2018-09-05T17:56:41.163Z,12.50
2018-09-05T17:59:09.931Z,13.37
2018-09-05T18:01:38.614Z,12.37
2018-09-05T18:04:07.103Z,13.30
2018-09-05T18:06:35.687Z,13.40
2018-09-05T18:09:05.740Z,14.33
2018-09-05T18:11:34.264Z,14.63
2018-09-05T18:14:02.820Z,15.10
2018-09-05T18:16:31.544Z,14.27
2018-09-05T18:19:00.548Z,13.90
2018-09-05T18:21:29.329Z,16.03
2018-09-05T18:23:57.980Z,13.10
2018-09-05T18:26:26.629Z,13.57
2018-09-05T18:28:55.997Z,14.80
2018-09-05T18:31:24.496Z,16.87
2018-09-05T18:33:53.303Z,14.20
2018-09-05T18:36:21.772Z,13.57
2018-09-05T18:38:50.263Z,13.97
2018-09-05T18:41:19.052Z,13.53
2018-09-05T18:43:47.796Z,13.37
2018-09-05T18:46:16.437Z,14.07
2018-09-05T18:48:45.365Z,13.80
2018-09-05T18:51:13.897Z,14.37
2018-09-05T18:53:42.446Z,13.97
2018-09-05T18:56:11.070Z,14.20
2018-09-05T18:58:39.785Z,13.37
2018-09-05T19:01:08.351Z,13.80
2018-09-05T19:03:37.051Z,15.67
2018-09-05T19:06:05.887Z,16.37
2018-09-05T19:08:34.444Z,13.43
2018-09-05T19:11:03.809Z,15.00
2018-09-05T19:13:32.437Z,13.83
2018-09-05T19:16:01.075Z,14.03
2018-09-05T19:18:29.781Z,13.70
2018-09-05T19:20:58.336Z,14.53
2018-09-05T19:23:27.024Z,13.93
2018-09-05T19:25:55.647Z,13.33
2018-09-05T19:28:24.228Z,14.80
2018-09-05T19:30:52.827Z,13.43
2018-09-05T19:33:21.435Z,15.23
2018-09-05T19:35:50.424Z,13.63
2018-09-05T19:38:19.248Z,14.03
2018-09-05T19:40:48.128Z,13.73
2018-09-05T19:43:16.765Z,12.93
2018-09-05T19:45:45.328Z,14.13
2018-09-05T19:48:13.927Z,13.33
2018-09-05T19:50:42.463Z,13.57
2018-09-05T19:53:11.284Z,15.20
2018-09-05T19:55:39.854Z,14.67
2018-09-05T19:58:08.432Z,14.37
2018-09-05T20:00:37.534Z,13.10
2018-09-05T20:03:06.105Z,12.80
2018-09-05T20:05:34.717Z,13.93
2018-09-05T20:08:03.326Z,14.07
2018-09-05T20:10:31.899Z,18.60
2018-09-05T20:13:00.468Z,13.70
2018-09-05T20:15:29.096Z,14.43
2018-09-05T20:17:57.620Z,14.13
2018-09-05T20:20:26.171Z,14.17
2018-09-05T20:22:56.175Z,16.00
2018-09-05T20:25:24.873Z,15.10
2018-09-05T20:27:53.593Z,15.57
2018-09-05T20:30:22.173Z,17.47
2018-09-05T20:32:50.735Z,17.73
2018-09-05T20:35:19.240Z,17.13
2018-09-05T20:37:47.820Z,14.93
2018-09-05T20:40:16.318Z,17.10
2018-09-05T20:42:44.863Z,17.80
2018-09-05T20:45:13.775Z,17.20
2018-09-05T20:47:42.471Z,18.97
2018-09-05T20:50:11.013Z,16.67
2018-09-05T20:52:39.584Z,17.80
2018-09-05T20:55:08.347Z,17.70
2018-09-05T20:57:36.835Z,17.77
2018-09-05T21:00:06.081Z,18.90
2018-09-05T21:02:34.716Z,18.17
2018-09-05T21:05:03.292Z,17.80
2018-09-05T21:07:31.880Z,16.77
2018-09-05T21:10:00.392Z,16.77
2018-09-05T21:12:29.116Z,17.43
2018-09-05T21:14:57.669Z,17.70
2018-09-05T21:17:26.282Z,18.50
2018-09-05T21:19:54.809Z,18.33
2018-09-05T21:22:24.172Z,16.70
2018-09-05T21:24:52.634Z,17.40
2018-09-05T21:27:22.018Z,19.47
2018-09-05T21:29:50.971Z,18.93
2018-09-05T21:32:19.465Z,18.50
2018-09-05T21:34:47.947Z,17.77
2018-09-05T21:37:16.444Z,18.90
2018-09-05T21:39:45.068Z,20.43
2018-09-05T21:42:13.723Z,20.27
2018-09-05T21:44:42.207Z,19.73
2018-09-05T21:47:10.810Z,20.30
2018-09-05T21:49:39.538Z,21.43
2018-09-05T21:52:08.122Z,19.50
2018-09-05T21:54:36.932Z,19.27
2018-09-05T21:57:05.456Z,19.47
2018-09-05T21:59:34.019Z,19.53
2018-09-05T22:02:02.483Z,20.00
2018-09-05T22:04:31.032Z,19.33
2018-09-05T22:06:59.675Z,20.60
2018-09-05T22:09:28.148Z,20.20
2018-09-05T22:11:56.735Z,19.00
2018-09-05T22:14:25.272Z,19.67
2018-09-05T22:16:53.817Z,19.20
2018-09-05T22:19:22.305Z,19.70
2018-09-05T22:21:51.137Z,20.20
2018-09-05T22:24:19.859Z,18.20
2018-09-05T22:26:48.308Z,20.23
2018-09-05T22:29:17.024Z,23.90
2018-09-05T22:31:45.622Z,21.73
2018-09-05T22:34:14.824Z,22.63
2018-09-05T22:36:43.442Z,25.90
2018-09-05T22:39:11.962Z,20.97
2018-09-05T22:41:40.626Z,22.90
2018-09-05T22:44:20.322Z,23.80
2018-09-05T22:47:00.026Z,23.10
2018-09-05T22:51:52.721Z,25.90
2018-09-05T22:55:34.891Z,22.10
2018-09-05T22:58:21.152Z,20.90
2018-09-05T23:03:04.144Z,20.93
2018-09-05T23:08:47.346Z,21.30
2018-09-05T23:11:27.398Z,19.73
2018-09-05T23:15:10.863Z,21.10
2018-09-05T23:19:53.288Z,21.57
2018-09-05T23:22:22.004Z,18.73
2018-09-05T23:24:50.450Z,21.40
2018-09-05T23:27:19.024Z,20.93
2018-09-05T23:29:48.107Z,20.27
2018-09-05T23:32:16.554Z,18.90
2018-09-05T23:34:45.023Z,18.47
2018-09-05T23:37:13.475Z,18.30
2018-09-05T23:39:41.937Z,19.70
2018-09-05T23:42:10.414Z,19.70
2018-09-05T23:44:38.887Z,21.37
2018-09-05T23:47:07.347Z,17.87
2018-09-05T23:49:35.793Z,17.87
2018-09-05T23:52:04.327Z,16.93
2018-09-05T23:54:32.804Z,21.63
2018-09-05T23:57:01.288Z,19.63
2018-09-05T23:59:29.757Z,21.23
